createdAt,value
2018-12-16T00:00:41.682Z,933.20
2018-12-16T00:01:41.720Z,933.20
2018-12-16T00:02:41.612Z,933.19
2018-12-16T00:03:41.655Z,933.15
2018-12-16T00:04:43.844Z,933.19
2018-12-16T00:05:41.642Z,933.16
2018-12-16T00:06:41.769Z,933.16
2018-12-16T00:07:41.806Z,933.14
2018-12-16T00:08:41.823Z,933.15
2018-12-16T00:09:41.711Z,933.14
2018-12-16T00:10:41.736Z,933.16
2018-12-16T00:11:41.975Z,933.15
2018-12-16T00:12:41.891Z,933.21
2018-12-16T00:13:41.783Z,933.21
2018-12-16T00:14:41.812Z,933.22
2018-12-16T00:15:41.817Z,933.20
2018-12-16T00:16:42.004Z,933.22
2018-12-16T00:17:41.867Z,933.22
2018-12-16T00:18:41.924Z,933.25
2018-12-16T00:19:41.904Z,933.26
2018-12-16T00:20:41.905Z,933.23
2018-12-16T00:21:41.988Z,933.28
2018-12-16T00:22:41.956Z,933.23
2018-12-16T00:23:41.970Z,933.27
2018-12-16T00:24:41.980Z,933.26
2018-12-16T00:25:42.020Z,933.27
2018-12-16T00:26:42.124Z,933.29
2018-12-16T00:27:42.022Z,933.31
2018-12-16T00:28:42.059Z,933.32
2018-12-16T00:29:42.071Z,933.37
2018-12-16T00:30:42.086Z,933.40
2018-12-16T00:31:42.248Z,933.42
2018-12-16T00:32:42.147Z,933.45
2018-12-16T00:33:42.195Z,933.49
2018-12-16T00:34:42.149Z,933.51
2018-12-16T00:35:42.167Z,933.56
2018-12-16T00:36:42.289Z,933.56
2018-12-16T00:37:42.331Z,933.58
2018-12-16T00:38:42.352Z,933.59
2018-12-16T00:39:42.291Z,933.60
2018-12-16T00:40:42.295Z,933.62
2018-12-16T00:41:42.434Z,933.61
2018-12-16T00:42:42.312Z,933.60
2018-12-16T00:43:42.325Z,933.61
2018-12-16T00:44:42.379Z,933.60
2018-12-16T00:45:42.356Z,933.59
2018-12-16T00:46:42.592Z,933.58
2018-12-16T00:47:42.509Z,933.59
2018-12-16T00:48:42.526Z,933.60
2018-12-16T00:49:42.546Z,933.61
2018-12-16T00:50:42.440Z,933.62
2018-12-16T00:51:42.565Z,933.64
2018-12-16T00:52:42.466Z,933.62
2018-12-16T00:53:42.497Z,933.69
2018-12-16T00:54:42.516Z,933.67
2018-12-16T00:55:42.574Z,933.69
2018-12-16T00:56:42.699Z,933.69
2018-12-16T00:57:42.572Z,933.70
2018-12-16T00:58:42.588Z,933.70
2018-12-16T00:59:42.590Z,933.74
2018-12-16T01:00:42.626Z,933.73
2018-12-16T01:01:42.728Z,933.74
2018-12-16T01:02:42.713Z,933.71
2018-12-16T01:03:42.792Z,933.72
2018-12-16T01:04:42.691Z,933.71
2018-12-16T01:05:42.827Z,933.76
2018-12-16T01:06:42.945Z,933.74
2018-12-16T01:07:42.746Z,933.77
2018-12-16T01:08:42.754Z,933.78
2018-12-16T01:09:42.786Z,933.80
2018-12-16T01:10:42.920Z,933.80
2018-12-16T01:11:42.923Z,933.83
2018-12-16T01:12:42.820Z,933.83
2018-12-16T01:13:42.969Z,933.81
2018-12-16T01:14:42.874Z,933.83
2018-12-16T01:15:42.871Z,933.83
2018-12-16T01:16:43.055Z,933.84
2018-12-16T01:17:42.961Z,933.83
2018-12-16T01:18:42.952Z,933.83
2018-12-16T01:19:42.949Z,933.84
2018-12-16T01:20:42.973Z,933.87
2018-12-16T01:21:43.083Z,933.84
2018-12-16T01:22:43.641Z,933.87
2018-12-16T01:23:43.032Z,933.82
2018-12-16T01:24:43.036Z,933.83
2018-12-16T01:25:43.055Z,933.82
2018-12-16T01:26:43.183Z,933.82
2018-12-16T01:27:43.104Z,933.84
2018-12-16T01:28:43.117Z,933.86
2018-12-16T01:29:43.116Z,933.85
2018-12-16T01:30:43.146Z,933.86
2018-12-16T01:31:43.269Z,933.83
2018-12-16T01:32:43.175Z,933.85
2018-12-16T01:33:43.202Z,933.83
2018-12-16T01:34:43.334Z,933.79
2018-12-16T01:35:43.231Z,933.78
2018-12-16T01:36:43.468Z,933.78
2018-12-16T01:37:43.267Z,933.76
2018-12-16T01:38:43.284Z,933.76
2018-12-16T01:39:43.297Z,933.72
2018-12-16T01:40:43.329Z,933.73
2018-12-16T01:41:43.495Z,933.71
2018-12-16T01:42:43.471Z,933.68
2018-12-16T01:43:43.375Z,933.70
2018-12-16T01:44:43.376Z,933.71
2018-12-16T01:45:43.428Z,933.73
2018-12-16T01:46:43.589Z,933.72
2018-12-16T01:47:43.435Z,933.75
2018-12-16T01:48:43.463Z,933.74
2018-12-16T01:49:43.471Z,933.72
2018-12-16T01:50:43.499Z,933.76
2018-12-16T01:51:43.659Z,933.71
2018-12-16T01:52:49.950Z,933.73
2018-12-16T01:53:43.661Z,933.69
2018-12-16T01:54:43.568Z,933.71
2018-12-16T01:55:43.588Z,933.67
2018-12-16T01:56:43.711Z,933.70
2018-12-16T01:57:43.630Z,933.72
2018-12-16T01:58:43.625Z,933.72
2018-12-16T01:59:43.769Z,933.73
2018-12-16T02:00:43.659Z,933.72
2018-12-16T02:01:43.953Z,933.77
2018-12-16T02:02:43.819Z,933.77
2018-12-16T02:03:43.838Z,933.78
2018-12-16T02:04:43.731Z,933.78
2018-12-16T02:05:43.751Z,933.72
2018-12-16T02:06:43.819Z,933.75
2018-12-16T02:07:43.782Z,933.69
2018-12-16T02:08:43.813Z,933.63
2018-12-16T02:09:43.818Z,933.62
2018-12-16T02:10:43.979Z,933.65
2018-12-16T02:11:43.844Z,933.64
2018-12-16T02:12:43.881Z,933.67
2018-12-16T02:13:44.051Z,933.69
2018-12-16T02:14:43.917Z,933.68
2018-12-16T02:15:44.032Z,933.70
2018-12-16T02:16:43.953Z,933.71
2018-12-16T02:17:44.078Z,933.77
2018-12-16T02:18:44.016Z,933.82
2018-12-16T02:19:44.000Z,933.79
2018-12-16T02:20:44.109Z,933.82
2018-12-16T02:21:44.025Z,933.79
2018-12-16T02:22:44.164Z,933.76
2018-12-16T02:23:44.061Z,933.78
2018-12-16T02:24:44.073Z,933.80
2018-12-16T02:25:44.314Z,933.73
2018-12-16T02:26:44.102Z,933.76
2018-12-16T02:27:44.147Z,933.75
2018-12-16T02:28:44.138Z,933.71
2018-12-16T02:29:44.167Z,933.72
2018-12-16T02:30:44.224Z,933.71
2018-12-16T02:31:44.373Z,933.70
2018-12-16T02:32:44.217Z,933.70
2018-12-16T02:33:44.391Z,933.70
2018-12-16T02:34:44.256Z,933.69
2018-12-16T02:35:44.390Z,933.65
2018-12-16T02:36:44.304Z,933.63
2018-12-16T02:37:44.299Z,933.64
2018-12-16T02:38:44.425Z,933.65
2018-12-16T02:39:44.454Z,933.63
2018-12-16T02:40:44.356Z,933.63
2018-12-16T02:41:44.430Z,933.59
2018-12-16T02:42:44.399Z,933.57
2018-12-16T02:43:44.510Z,933.58
2018-12-16T02:44:44.466Z,933.56
2018-12-16T02:45:44.456Z,933.52
2018-12-16T02:46:44.447Z,933.54
2018-12-16T02:47:44.594Z,933.48
2018-12-16T02:48:44.712Z,933.47
2018-12-16T02:49:44.499Z,933.47
2018-12-16T02:50:44.525Z,933.44
2018-12-16T02:51:44.528Z,933.44
2018-12-16T02:52:44.683Z,933.42
2018-12-16T02:53:44.668Z,933.40
2018-12-16T02:54:44.598Z,933.41
2018-12-16T02:55:44.620Z,933.38
2018-12-16T02:56:44.622Z,933.38
2018-12-16T02:57:44.656Z,933.39
2018-12-16T02:58:44.721Z,933.38
2018-12-16T02:59:44.687Z,933.40
2018-12-16T03:00:44.747Z,933.41
2018-12-16T03:01:44.729Z,933.41
2018-12-16T03:02:44.731Z,933.44
2018-12-16T03:03:44.862Z,933.45
2018-12-16T03:04:44.886Z,933.40
2018-12-16T03:05:44.786Z,933.43
2018-12-16T03:06:44.803Z,933.43
2018-12-16T03:07:44.818Z,933.41
2018-12-16T03:08:45.027Z,933.39
2018-12-16T03:09:44.972Z,933.39
2018-12-16T03:10:44.877Z,933.37
2018-12-16T03:11:44.886Z,933.39
2018-12-16T03:12:44.926Z,933.38
2018-12-16T03:13:45.022Z,933.35
2018-12-16T03:14:44.950Z,933.35
2018-12-16T03:15:44.969Z,933.39
2018-12-16T03:16:44.981Z,933.37
2018-12-16T03:17:45.111Z,933.39
2018-12-16T03:18:45.108Z,933.46
2018-12-16T03:19:45.030Z,933.46
2018-12-16T03:20:45.163Z,933.44
2018-12-16T03:21:45.064Z,933.41
2018-12-16T03:22:45.091Z,933.43
2018-12-16T03:23:45.315Z,933.43
2018-12-16T03:24:45.120Z,933.41
2018-12-16T03:25:45.119Z,933.40
2018-12-16T03:26:45.164Z,933.42
2018-12-16T03:27:45.177Z,933.38
2018-12-16T03:28:45.277Z,933.42
2018-12-16T03:29:45.195Z,933.44
2018-12-16T03:30:45.226Z,933.45
2018-12-16T03:31:45.235Z,933.46
2018-12-16T03:32:45.271Z,933.51
2018-12-16T03:33:45.363Z,933.46
2018-12-16T03:34:45.403Z,933.52
2018-12-16T03:35:45.310Z,933.57
2018-12-16T03:36:45.435Z,933.55
2018-12-16T03:37:45.325Z,933.58
2018-12-16T03:38:45.567Z,933.55
2018-12-16T03:39:45.496Z,933.58
2018-12-16T03:40:45.390Z,933.63
2018-12-16T03:41:45.398Z,933.58
2018-12-16T03:42:45.428Z,933.57
2018-12-16T03:43:45.550Z,933.57
2018-12-16T03:44:45.463Z,933.54
2018-12-16T03:45:45.473Z,933.49
2018-12-16T03:46:45.665Z,933.49
2018-12-16T03:47:45.509Z,933.43
2018-12-16T03:48:45.791Z,933.40
2018-12-16T03:49:45.540Z,933.38
2018-12-16T03:50:45.567Z,933.36
2018-12-16T03:51:45.565Z,933.37
2018-12-16T03:52:45.639Z,933.33
2018-12-16T03:53:45.716Z,933.35
2018-12-16T03:54:45.634Z,933.35
2018-12-16T03:55:45.648Z,933.36
2018-12-16T03:56:45.651Z,933.42
2018-12-16T03:57:45.683Z,933.40
2018-12-16T03:58:45.742Z,933.45
2018-12-16T03:59:45.707Z,933.47
2018-12-16T04:00:45.732Z,933.46
2018-12-16T04:01:45.729Z,933.44
2018-12-16T04:02:45.879Z,933.43
2018-12-16T04:03:45.991Z,933.43
2018-12-16T04:04:45.777Z,933.39
2018-12-16T04:05:45.927Z,933.42
2018-12-16T04:06:45.834Z,933.43
2018-12-16T04:07:45.839Z,933.47
2018-12-16T04:08:45.919Z,933.52
2018-12-16T04:09:45.877Z,933.54
2018-12-16T04:10:45.890Z,933.53
2018-12-16T04:11:45.925Z,933.47
2018-12-16T04:12:45.912Z,933.51
2018-12-16T04:13:46.051Z,933.52
2018-12-16T04:14:45.954Z,933.52
2018-12-16T04:15:46.090Z,933.53
2018-12-16T04:16:45.978Z,933.49
2018-12-16T04:17:45.991Z,933.50
2018-12-16T04:18:46.198Z,933.44
2018-12-16T04:19:46.048Z,933.46
2018-12-16T04:20:46.045Z,933.46
2018-12-16T04:21:46.067Z,933.49
2018-12-16T04:22:46.087Z,933.55
2018-12-16T04:23:46.093Z,933.56
2018-12-16T04:24:46.208Z,933.60
2018-12-16T04:25:46.137Z,933.58
2018-12-16T04:26:46.271Z,933.58
2018-12-16T04:27:46.287Z,933.62
2018-12-16T04:28:46.194Z,933.52
2018-12-16T04:29:46.341Z,933.54
2018-12-16T04:30:46.257Z,933.48
2018-12-16T04:31:46.238Z,933.44
2018-12-16T04:32:46.292Z,933.45
2018-12-16T04:33:46.383Z,933.36
2018-12-16T04:34:46.389Z,933.36
2018-12-16T04:35:46.297Z,933.33
2018-12-16T04:36:46.320Z,933.29
2018-12-16T04:37:46.345Z,933.28
2018-12-16T04:38:46.334Z,933.32
2018-12-16T04:39:46.459Z,933.36
2018-12-16T04:40:46.395Z,933.35
2018-12-16T04:41:46.390Z,933.39
2018-12-16T04:42:46.421Z,933.42
2018-12-16T04:43:46.431Z,933.33
2018-12-16T04:44:46.591Z,933.36
2018-12-16T04:45:46.453Z,933.31
2018-12-16T04:46:46.483Z,933.29
2018-12-16T04:47:46.492Z,933.25
2018-12-16T04:48:46.514Z,933.31
2018-12-16T04:49:46.601Z,933.26
2018-12-16T04:50:46.550Z,933.27
2018-12-16T04:51:46.552Z,933.25
2018-12-16T04:52:46.580Z,933.22
2018-12-16T04:53:46.737Z,933.22
2018-12-16T04:54:46.704Z,933.24
2018-12-16T04:55:46.646Z,933.25
2018-12-16T04:56:46.635Z,933.26
2018-12-16T04:57:46.662Z,933.28
2018-12-16T04:58:46.681Z,933.28
2018-12-16T04:59:46.912Z,933.31
2018-12-16T05:00:46.714Z,933.30
2018-12-16T05:01:46.839Z,933.35
2018-12-16T05:02:46.752Z,933.35
2018-12-16T05:03:46.757Z,933.38
2018-12-16T05:04:46.859Z,933.33
2018-12-16T05:05:46.820Z,933.36
2018-12-16T05:06:46.814Z,933.31
2018-12-16T05:07:46.839Z,933.33
2018-12-16T05:08:46.821Z,933.36
2018-12-16T05:09:47.119Z,933.37
2018-12-16T05:10:46.863Z,933.35
2018-12-16T05:11:47.002Z,933.43
2018-12-16T05:12:46.912Z,933.42
2018-12-16T05:13:46.910Z,933.41
2018-12-16T05:14:46.967Z,933.40
2018-12-16T05:15:47.060Z,933.37
2018-12-16T05:16:46.986Z,933.35
2018-12-16T05:17:47.100Z,933.34
2018-12-16T05:18:46.992Z,933.34
2018-12-16T05:19:47.005Z,933.36
2018-12-16T05:20:47.173Z,933.32
2018-12-16T05:21:47.043Z,933.33
2018-12-16T05:22:47.067Z,933.32
2018-12-16T05:23:47.085Z,933.36
2018-12-16T05:24:47.103Z,933.35
2018-12-16T05:25:47.220Z,933.41
2018-12-16T05:26:47.131Z,933.41
2018-12-16T05:27:47.264Z,933.38
2018-12-16T05:28:47.155Z,933.42
2018-12-16T05:29:47.172Z,933.43
2018-12-16T05:30:47.329Z,933.41
2018-12-16T05:31:47.202Z,933.44
2018-12-16T05:32:47.223Z,933.37
2018-12-16T05:33:47.361Z,933.38
2018-12-16T05:34:47.277Z,933.39
2018-12-16T05:35:47.385Z,933.40
2018-12-16T05:36:47.355Z,933.39
2018-12-16T05:37:47.298Z,933.39
2018-12-16T05:38:47.364Z,933.40
2018-12-16T05:39:47.384Z,933.42
2018-12-16T05:40:47.418Z,933.44
2018-12-16T05:41:47.387Z,933.45
2018-12-16T05:42:47.394Z,933.46
2018-12-16T05:43:47.553Z,933.46
2018-12-16T05:44:47.410Z,933.46
2018-12-16T05:45:48.121Z,933.47
2018-12-16T05:46:47.466Z,933.48
2018-12-16T05:47:47.489Z,933.47
2018-12-16T05:48:47.597Z,933.52
2018-12-16T05:49:47.508Z,933.53
2018-12-16T05:50:47.565Z,933.53
2018-12-16T05:51:47.587Z,933.51
2018-12-16T05:52:47.542Z,933.53
2018-12-16T05:53:48.748Z,933.47
2018-12-16T05:54:47.591Z,933.44
2018-12-16T05:55:47.723Z,933.47
2018-12-16T05:56:47.644Z,933.43
2018-12-16T05:57:47.623Z,933.45
2018-12-16T05:58:47.700Z,933.46
2018-12-16T05:59:47.687Z,933.44
2018-12-16T06:00:47.676Z,933.45
2018-12-16T06:01:47.704Z,933.50
2018-12-16T06:02:47.719Z,933.45
2018-12-16T06:03:47.843Z,933.46
2018-12-16T06:04:47.751Z,933.46
2018-12-16T06:05:47.882Z,933.48
2018-12-16T06:06:47.792Z,933.43
2018-12-16T06:07:47.815Z,933.46
2018-12-16T06:08:47.917Z,933.46
2018-12-16T06:09:47.950Z,933.43
2018-12-16T06:10:47.849Z,933.45
2018-12-16T06:11:47.861Z,933.45
2018-12-16T06:12:47.867Z,933.42
2018-12-16T06:14:47.926Z,933.40
2018-12-16T06:15:47.917Z,933.42
2018-12-16T06:16:47.949Z,933.39
2018-12-16T06:17:47.964Z,933.38
2018-12-16T06:18:48.012Z,933.38
2018-12-16T06:19:47.989Z,933.37
2018-12-16T06:20:48.132Z,933.35
2018-12-16T06:21:48.149Z,933.33
2018-12-16T06:22:48.055Z,933.26
2018-12-16T06:23:48.159Z,933.29
2018-12-16T06:24:48.195Z,933.23
2018-12-16T06:25:48.082Z,933.23
2018-12-16T06:26:48.107Z,933.21
2018-12-16T06:27:48.246Z,933.20
2018-12-16T06:28:48.197Z,933.23
2018-12-16T06:29:48.162Z,933.17
2018-12-16T06:30:48.292Z,933.17
2018-12-16T06:31:48.192Z,933.24
2018-12-16T06:32:48.327Z,933.28
2018-12-16T06:33:48.324Z,933.22
2018-12-16T06:34:48.242Z,933.25
2018-12-16T06:35:48.261Z,933.28
2018-12-16T06:36:48.307Z,933.28
2018-12-16T06:37:48.409Z,933.25
2018-12-16T06:38:48.411Z,933.25
2018-12-16T06:39:48.312Z,933.28
2018-12-16T06:40:48.342Z,933.26
2018-12-16T06:41:48.353Z,933.27
2018-12-16T06:42:48.375Z,933.27
2018-12-16T06:43:48.481Z,933.25
2018-12-16T06:44:48.397Z,933.31
2018-12-16T06:45:48.414Z,933.28
2018-12-16T06:46:48.419Z,933.27
2018-12-16T06:47:48.449Z,933.26
2018-12-16T06:48:48.558Z,933.26
2018-12-16T06:49:48.476Z,933.24
2018-12-16T06:50:48.496Z,933.22
2018-12-16T06:51:48.505Z,933.30
2018-12-16T06:52:48.651Z,933.32
2018-12-16T06:53:48.720Z,933.31
2018-12-16T06:54:48.571Z,933.35
2018-12-16T06:55:48.574Z,933.35
2018-12-16T06:56:48.755Z,933.36
2018-12-16T06:57:48.607Z,933.36
2018-12-16T06:58:48.623Z,933.40
2018-12-16T06:59:48.648Z,933.39
2018-12-16T07:00:48.659Z,933.39
2018-12-16T07:01:48.795Z,933.37
2018-12-16T07:02:48.695Z,933.34
2018-12-16T07:03:48.720Z,933.38
2018-12-16T07:04:48.721Z,933.38
2018-12-16T07:05:48.756Z,933.37
2018-12-16T07:06:48.801Z,933.40
2018-12-16T07:07:48.796Z,933.44
2018-12-16T07:08:48.834Z,933.46
2018-12-16T07:09:48.870Z,933.49
2018-12-16T07:10:48.825Z,933.56
2018-12-16T07:11:48.858Z,933.54
2018-12-16T07:12:48.864Z,933.56
2018-12-16T07:13:48.888Z,933.59
2018-12-16T07:14:48.934Z,933.64
2018-12-16T07:15:49.030Z,933.65
2018-12-16T07:16:49.037Z,933.68
2018-12-16T07:17:49.091Z,933.70
2018-12-16T07:18:49.071Z,933.71
2018-12-16T07:19:49.161Z,933.70
2018-12-16T07:20:48.991Z,933.69
2018-12-16T07:21:48.996Z,933.70
2018-12-16T07:22:49.022Z,933.74
2018-12-16T07:23:49.035Z,933.77
2018-12-16T07:24:49.196Z,933.75
2018-12-16T07:25:49.109Z,933.78
2018-12-16T07:26:49.231Z,933.80
2018-12-16T07:27:49.095Z,933.82
2018-12-16T07:28:49.108Z,933.79
2018-12-16T07:29:49.165Z,933.81
2018-12-16T07:30:49.262Z,933.84
2018-12-16T07:31:49.149Z,933.83
2018-12-16T07:32:49.293Z,933.81
2018-12-16T07:33:49.410Z,933.85
2018-12-16T07:34:49.198Z,933.86
2018-12-16T07:35:49.227Z,933.86
2018-12-16T07:36:49.242Z,933.90
2018-12-16T07:37:49.290Z,933.90
2018-12-16T07:38:49.328Z,933.90
2018-12-16T07:39:49.417Z,933.87
2018-12-16T07:40:49.323Z,933.90
2018-12-16T07:41:49.337Z,933.85
2018-12-16T07:42:49.478Z,933.82
2018-12-16T07:43:49.342Z,933.86
2018-12-16T07:44:49.480Z,933.82
2018-12-16T07:45:49.381Z,933.82
2018-12-16T07:46:49.523Z,933.88
2018-12-16T07:47:49.421Z,933.89
2018-12-16T07:48:49.429Z,933.88
2018-12-16T07:49:49.558Z,933.86
2018-12-16T07:50:49.469Z,933.83
2018-12-16T07:51:49.519Z,933.80
2018-12-16T07:52:49.553Z,933.80
2018-12-16T07:53:49.606Z,933.78
2018-12-16T07:54:49.664Z,933.79
2018-12-16T07:55:49.563Z,933.77
2018-12-16T07:56:49.569Z,933.80
2018-12-16T07:57:49.581Z,933.79
2018-12-16T07:58:49.612Z,933.76
2018-12-16T07:59:49.711Z,933.80
2018-12-16T08:00:49.643Z,933.77
2018-12-16T08:01:49.649Z,933.72
2018-12-16T08:02:49.662Z,933.68
2018-12-16T08:03:49.704Z,933.69
2018-12-16T08:04:53.112Z,933.71
2018-12-16T08:05:49.693Z,933.67
2018-12-16T08:06:49.714Z,933.71
2018-12-16T08:07:49.736Z,933.73
2018-12-16T08:08:49.740Z,933.75
2018-12-16T08:09:49.869Z,933.76
2018-12-16T08:10:49.789Z,933.77
2018-12-16T08:11:49.800Z,933.72
2018-12-16T08:12:49.814Z,933.75
2018-12-16T08:13:49.955Z,933.71
2018-12-16T08:14:49.950Z,933.73
2018-12-16T08:15:49.991Z,933.71
2018-12-16T08:16:49.924Z,933.69
2018-12-16T08:17:49.894Z,933.68
2018-12-16T08:18:49.912Z,933.68
2018-12-16T08:19:50.077Z,933.67
2018-12-16T08:20:49.991Z,933.62
2018-12-16T08:21:49.972Z,933.58
2018-12-16T08:22:49.975Z,933.54
2018-12-16T08:23:50.015Z,933.52
2018-12-16T08:24:50.134Z,933.50
2018-12-16T08:25:50.187Z,933.47
2018-12-16T08:26:50.053Z,933.48
2018-12-16T08:27:50.062Z,933.46
2018-12-16T08:28:50.085Z,933.46
2018-12-16T08:29:50.100Z,933.45
2018-12-16T08:30:50.228Z,933.48
2018-12-16T08:31:50.144Z,933.48
2018-12-16T08:32:50.159Z,933.51
2018-12-16T08:33:50.284Z,933.48
2018-12-16T08:34:50.163Z,933.47
2018-12-16T08:35:50.349Z,933.54
2018-12-16T08:36:50.226Z,933.56
2018-12-16T08:37:50.247Z,933.58
2018-12-16T08:38:50.244Z,933.58
2018-12-16T08:39:50.268Z,933.59
2018-12-16T08:40:50.369Z,933.59
2018-12-16T08:41:50.299Z,933.59
2018-12-16T08:42:50.322Z,933.58
2018-12-16T08:43:50.320Z,933.60
2018-12-16T08:44:50.351Z,933.61
2018-12-16T08:45:50.456Z,933.64
2018-12-16T08:46:50.377Z,933.63
2018-12-16T08:47:50.515Z,933.66
2018-12-16T08:48:50.426Z,933.65
2018-12-16T08:49:50.425Z,933.65
2018-12-16T08:50:50.487Z,933.67
2018-12-16T08:51:50.578Z,933.70
2018-12-16T08:52:50.471Z,933.70
2018-12-16T08:53:50.576Z,933.75
2018-12-16T08:54:50.499Z,933.75
2018-12-16T08:55:50.572Z,933.79
2018-12-16T08:56:50.571Z,933.80
2018-12-16T08:57:50.680Z,933.82
2018-12-16T08:58:50.572Z,933.84
2018-12-16T08:59:50.601Z,933.82
2018-12-16T09:00:50.670Z,933.87
2018-12-16T09:01:50.618Z,933.83
2018-12-16T09:02:50.761Z,933.80
2018-12-16T09:03:50.660Z,933.86
2018-12-16T09:04:50.763Z,933.85
2018-12-16T09:05:50.693Z,933.82
2018-12-16T09:06:50.700Z,933.83
2018-12-16T09:07:50.733Z,933.87
2018-12-16T09:08:50.753Z,933.88
2018-12-16T09:09:50.871Z,933.89
2018-12-16T09:10:50.793Z,933.89
2018-12-16T09:11:50.802Z,933.87
2018-12-16T09:12:50.809Z,933.84
2018-12-16T09:13:50.834Z,933.86
2018-12-16T09:14:50.969Z,933.82
2018-12-16T09:15:50.862Z,933.78
2018-12-16T09:16:50.892Z,933.84
2018-12-16T09:17:50.899Z,933.81
2018-12-16T09:18:50.930Z,933.84
2018-12-16T09:19:51.055Z,933.89
2018-12-16T09:20:50.955Z,933.92
2018-12-16T09:21:50.992Z,933.92
2018-12-16T09:22:51.001Z,933.90
2018-12-16T09:23:51.008Z,933.93
2018-12-16T09:24:51.188Z,933.95
2018-12-16T09:25:51.179Z,933.96
2018-12-16T09:26:51.075Z,933.98
2018-12-16T09:27:51.089Z,934.00
2018-12-16T09:28:51.230Z,934.03
2018-12-16T09:29:51.276Z,934.05
2018-12-16T09:30:57.818Z,934.06
2018-12-16T09:31:51.285Z,934.12
2018-12-16T09:32:51.174Z,934.11
2018-12-16T09:33:51.202Z,934.10
2018-12-16T09:34:51.366Z,934.09
2018-12-16T09:35:51.362Z,934.11
2018-12-16T09:36:51.384Z,934.09
2018-12-16T09:37:51.300Z,934.07
2018-12-16T09:38:51.307Z,934.11
2018-12-16T09:39:51.362Z,934.06
2018-12-16T09:40:51.346Z,934.06
2018-12-16T09:41:51.347Z,934.06
2018-12-16T09:42:51.366Z,934.09
2018-12-16T09:43:51.400Z,934.08
2018-12-16T09:44:51.507Z,934.04
2018-12-16T09:45:51.429Z,934.09
2018-12-16T09:46:51.446Z,934.12
2018-12-16T09:47:51.465Z,934.13
2018-12-16T09:48:51.493Z,934.11
2018-12-16T09:49:51.733Z,934.07
2018-12-16T09:50:51.541Z,934.07
2018-12-16T09:51:51.559Z,934.07
2018-12-16T09:52:51.690Z,934.09
2018-12-16T09:53:51.600Z,934.13
2018-12-16T09:54:51.715Z,934.13
2018-12-16T09:55:51.752Z,934.12
2018-12-16T09:56:51.671Z,934.13
2018-12-16T09:57:51.681Z,934.14
2018-12-16T09:58:51.811Z,934.11
2018-12-16T09:59:51.782Z,934.11
2018-12-16T10:00:51.727Z,934.16
2018-12-16T10:01:51.770Z,934.12
2018-12-16T10:02:51.778Z,934.14
2018-12-16T10:03:51.782Z,934.16
2018-12-16T10:04:51.977Z,934.18
2018-12-16T10:05:51.823Z,934.19
2018-12-16T10:06:51.860Z,934.18
2018-12-16T10:07:51.869Z,934.22
2018-12-16T10:08:51.905Z,934.27
2018-12-16T10:09:52.004Z,934.22
2018-12-16T10:10:51.929Z,934.21
2018-12-16T10:11:51.954Z,934.20
2018-12-16T10:12:51.992Z,934.17
2018-12-16T10:13:52.014Z,934.20
2018-12-16T10:14:52.129Z,934.21
2018-12-16T10:15:52.053Z,934.17
2018-12-16T10:16:52.070Z,934.21
2018-12-16T10:17:52.102Z,934.19
2018-12-16T10:18:52.119Z,934.21
2018-12-16T10:19:52.277Z,934.18
2018-12-16T10:20:52.217Z,934.21
2018-12-16T10:21:52.303Z,934.17
2018-12-16T10:22:52.203Z,934.18
2018-12-16T10:23:52.235Z,934.16
2018-12-16T10:24:52.520Z,934.17
2018-12-16T10:25:52.397Z,934.14
2018-12-16T10:26:52.298Z,934.16
2018-12-16T10:27:52.403Z,934.16
2018-12-16T10:28:52.342Z,934.17
2018-12-16T10:29:52.430Z,934.12
2018-12-16T10:30:52.399Z,934.13
2018-12-16T10:31:52.465Z,934.08
2018-12-16T10:32:52.487Z,934.07
2018-12-16T10:33:52.472Z,934.12
2018-12-16T10:34:52.582Z,934.14
2018-12-16T10:35:52.529Z,934.13
2018-12-16T10:36:52.660Z,934.12
2018-12-16T10:37:52.579Z,934.14
2018-12-16T10:38:52.603Z,934.16
2018-12-16T10:39:52.704Z,934.13
2018-12-16T10:40:52.654Z,934.10
2018-12-16T10:41:52.784Z,934.08
2018-12-16T10:42:52.695Z,934.04
2018-12-16T10:43:52.719Z,934.05
2018-12-16T10:44:52.852Z,934.04
2018-12-16T10:45:52.772Z,934.09
2018-12-16T10:46:52.909Z,934.05
2018-12-16T10:47:52.821Z,934.10
2018-12-16T10:48:52.838Z,934.09
2018-12-16T10:49:53.022Z,934.07
2018-12-16T10:50:52.897Z,934.07
2018-12-16T10:51:53.038Z,934.10
2018-12-16T10:52:52.961Z,934.09
2018-12-16T10:53:53.086Z,934.14
2018-12-16T10:54:58.377Z,934.15
2018-12-16T10:55:53.031Z,934.21
2018-12-16T10:56:53.066Z,934.17
2018-12-16T10:57:53.086Z,934.19
2018-12-16T10:58:53.108Z,934.22
2018-12-16T10:59:53.181Z,934.21
2018-12-16T11:00:53.230Z,934.21
2018-12-16T11:01:53.174Z,934.20
2018-12-16T11:02:53.324Z,934.20
2018-12-16T11:03:53.447Z,934.18
2018-12-16T11:04:53.377Z,934.24
2018-12-16T11:05:53.278Z,934.25
2018-12-16T11:06:53.315Z,934.26
2018-12-16T11:07:53.324Z,934.32
2018-12-16T11:08:53.532Z,934.30
2018-12-16T11:09:53.382Z,934.31
2018-12-16T11:10:53.413Z,934.34
2018-12-16T11:11:53.558Z,934.36
2018-12-16T11:12:53.458Z,934.36
2018-12-16T11:13:53.614Z,934.34
2018-12-16T11:14:53.641Z,934.35
2018-12-16T11:15:53.554Z,934.38
2018-12-16T11:16:53.750Z,934.42
2018-12-16T11:17:53.622Z,934.43
2018-12-16T11:18:53.631Z,934.42
2018-12-16T11:19:53.677Z,934.43
2018-12-16T11:20:53.714Z,934.48
2018-12-16T11:21:53.878Z,934.49
2018-12-16T11:22:53.737Z,934.49
2018-12-16T11:23:54.104Z,934.44
2018-12-16T11:24:53.815Z,934.47
2018-12-16T11:25:53.838Z,934.46
2018-12-16T11:26:53.969Z,934.40
2018-12-16T11:27:53.897Z,934.43
2018-12-16T11:28:54.008Z,934.46
2018-12-16T11:29:53.936Z,934.45
2018-12-16T11:30:53.955Z,934.46
2018-12-16T11:31:54.119Z,934.47
2018-12-16T11:32:54.245Z,934.47
2018-12-16T11:33:54.040Z,934.51
2018-12-16T11:34:54.099Z,934.64
2018-12-16T11:35:54.116Z,934.87
2018-12-16T11:36:54.141Z,935.21
2018-12-16T11:37:54.274Z,935.33
2018-12-16T11:38:54.197Z,935.25
2018-12-16T11:39:54.229Z,934.99
2018-12-16T11:40:54.248Z,934.76
2018-12-16T11:41:54.284Z,934.65
2018-12-16T11:42:54.579Z,934.63
2018-12-16T11:43:54.458Z,934.60
2018-12-16T11:44:54.488Z,934.62
2018-12-16T11:45:54.516Z,934.69
2018-12-16T11:46:54.424Z,934.75
2018-12-16T11:47:54.675Z,934.85
2018-12-16T11:48:54.488Z,935.18
2018-12-16T11:49:54.512Z,935.47
2018-12-16T11:50:54.539Z,935.56
2018-12-16T11:51:54.582Z,935.54
2018-12-16T11:52:54.748Z,935.31
2018-12-16T11:53:54.672Z,934.92
2018-12-16T11:54:54.719Z,934.69
2018-12-16T11:55:54.691Z,934.60
2018-12-16T11:56:54.724Z,934.58
2018-12-16T11:57:54.974Z,934.57
2018-12-16T11:58:54.901Z,934.55
2018-12-16T11:59:54.933Z,934.55
2018-12-16T12:00:54.960Z,934.53
2018-12-16T12:01:54.990Z,934.58
2018-12-16T12:02:54.996Z,934.55
2018-12-16T12:03:54.934Z,934.59
2018-12-16T12:04:55.081Z,934.60
2018-12-16T12:05:54.997Z,934.58
2018-12-16T12:06:55.021Z,934.65
2018-12-16T12:07:55.164Z,934.89
2018-12-16T12:08:55.093Z,935.42
2018-12-16T12:09:55.110Z,935.75
2018-12-16T12:10:55.167Z,935.74
2018-12-16T12:11:56.469Z,935.75
2018-12-16T12:12:55.313Z,935.81
2018-12-16T12:13:55.247Z,935.57
2018-12-16T12:14:55.281Z,935.11
2018-12-16T12:15:55.420Z,934.77
2018-12-16T12:16:55.331Z,934.63
2018-12-16T12:17:55.462Z,934.58
2018-12-16T12:18:55.400Z,934.56
2018-12-16T12:19:55.436Z,934.52
2018-12-16T12:20:55.459Z,934.62
2018-12-16T12:21:55.539Z,935.05
2018-12-16T12:22:55.690Z,935.52
2018-12-16T12:23:55.545Z,935.63
2018-12-16T12:24:55.569Z,935.65
2018-12-16T12:25:55.612Z,935.73
2018-12-16T12:26:55.643Z,935.72
2018-12-16T12:27:55.832Z,935.80
2018-12-16T12:28:55.827Z,935.81
2018-12-16T12:29:55.730Z,935.76